sensor_id;sensor_type;location;lat;lon;timestamp;pressure;altitude;pressure_sealevel;temperature
24740;BMP280;45234;48.148;17.128;2022-10-28T00:02:23;101287.13;;;11.86
24740;BMP280;45234;48.148;17.128;2022-10-28T00:04:50;101282.75;;;11.86
24740;BMP280;45234;48.148;17.128;2022-10-28T00:07:16;101280.66;;;11.90
24740;BMP280;45234;48.148;17.128;2022-10-28T00:09:44;101286.78;;;11.97
24740;BMP280;45234;48.148;17.128;2022-10-28T00:12:11;101288.09;;;11.93
24740;BMP280;45234;48.148;17.128;2022-10-28T00:14:37;101292.94;;;11.96
24740;BMP280;45234;48.148;17.128;2022-10-28T00:17:04;101290.69;;;11.93
24740;BMP280;45234;48.148;17.128;2022-10-28T00:19:31;101290.75;;;11.85
24740;BMP280;45234;48.148;17.128;2022-10-28T00:21:57;101284.69;;;11.92
24740;BMP280;45234;48.148;17.128;2022-10-28T00:24:24;101283.56;;;11.87
24740;BMP280;45234;48.148;17.128;2022-10-28T00:26:51;101278.66;;;12.00
24740;BMP280;45234;48.148;17.128;2022-10-28T00:29:18;101273.31;;;11.93
24740;BMP280;45234;48.148;17.128;2022-10-28T00:31:46;101275.06;;;12.01
24740;BMP280;45234;48.148;17.128;2022-10-28T00:34:14;101273.78;;;11.97
24740;BMP280;45234;48.148;17.128;2022-10-28T00:36:42;101270.84;;;12.00
24740;BMP280;45234;48.148;17.128;2022-10-28T00:41:39;101270.84;;;12.00
24740;BMP280;45234;48.148;17.128;2022-10-28T00:46:51;101270.53;;;11.95
24740;BMP280;45234;48.148;17.128;2022-10-28T00:49:28;101269.47;;;11.89
24740;BMP280;45234;48.148;17.128;2022-10-28T00:51:57;101266.03;;;11.89
24740;BMP280;45234;48.148;17.128;2022-10-28T00:54:25;101267.66;;;11.90
24740;BMP280;45234;48.148;17.128;2022-10-28T00:56:53;101270.53;;;11.95
24740;BMP280;45234;48.148;17.128;2022-10-28T00:59:28;101267.59;;;11.98
24740;BMP280;45234;48.148;17.128;2022-10-28T01:01:57;101270.34;;;12.05
24740;BMP280;45234;48.148;17.128;2022-10-28T01:04:24;101258.16;;;12.05
24740;BMP280;45234;48.148;17.128;2022-10-28T01:06:50;101261.34;;;12.15
24740;BMP280;45234;48.148;17.128;2022-10-28T01:09:18;101259.09;;;12.12
24740;BMP280;45234;48.148;17.128;2022-10-28T01:24:21;101246.19;;;12.19
24740;BMP280;45234;48.148;17.128;2022-10-28T01:27:17;101245.38;;;12.18
24740;BMP280;45234;48.148;17.128;2022-10-28T01:30:25;101243.25;;;12.22
24740;BMP280;45234;48.148;17.128;2022-10-28T01:32:49;101241.94;;;12.26
24740;BMP280;45234;48.148;17.128;2022-10-28T01:35:15;101240.03;;;12.20
24740;BMP280;45234;48.148;17.128;2022-10-28T01:37:48;101242.44;;;12.21
24740;BMP280;45234;48.148;17.128;2022-10-28T01:45:49;101237.31;;;12.13
24740;BMP280;45234;48.148;17.128;2022-10-28T01:48:18;101235.34;;;12.15
24740;BMP280;45234;48.148;17.128;2022-10-28T01:53:13;101229.13;;;12.24
24740;BMP280;45234;48.148;17.128;2022-10-28T01:55:44;101227.31;;;12.25
24740;BMP280;45234;48.148;17.128;2022-10-28T01:58:12;101230.00;;;12.31
24740;BMP280;45234;48.148;17.128;2022-10-28T02:00:41;101231.28;;;12.36
24740;BMP280;45234;48.148;17.128;2022-10-28T02:03:08;101233.97;;;12.27
24740;BMP280;45234;48.148;17.128;2022-10-28T02:05:36;101237.56;;;12.26
24740;BMP280;45234;48.148;17.128;2022-10-28T02:10:41;101234.75;;;12.28
24740;BMP280;45234;48.148;17.128;2022-10-28T02:13:12;101238.50;;;12.34
24740;BMP280;45234;48.148;17.128;2022-10-28T02:15:45;101240.28;;;12.33
24740;BMP280;45234;48.148;17.128;2022-10-28T02:18:22;101238.13;;;12.37
24740;BMP280;45234;48.148;17.128;2022-10-28T02:20:57;101237.59;;;12.41
24740;BMP280;45234;48.148;17.128;2022-10-28T02:25:57;101231.06;;;12.45
24740;BMP280;45234;48.148;17.128;2022-10-28T02:28:35;101235.47;;;12.45
24740;BMP280;45234;48.148;17.128;2022-10-28T02:31:22;101246.50;;;12.47
24740;BMP280;45234;48.148;17.128;2022-10-28T02:33:52;101251.88;;;12.45
24740;BMP280;45234;48.148;17.128;2022-10-28T02:36:20;101246.97;;;12.42
24740;BMP280;45234;48.148;17.128;2022-10-28T02:38:48;101238.56;;;12.40
24740;BMP280;45234;48.148;17.128;2022-10-28T02:41:23;101235.34;;;12.38
24740;BMP280;45234;48.148;17.128;2022-10-28T02:43:52;101234.53;;;12.38
24740;BMP280;45234;48.148;17.128;2022-10-28T02:46:20;101230.94;;;12.39
24740;BMP280;45234;48.148;17.128;2022-10-28T02:48:47;101225.28;;;12.35
24740;BMP280;45234;48.148;17.128;2022-10-28T02:51:17;101226.72;;;12.38
24740;BMP280;45234;48.148;17.128;2022-10-28T02:56:26;101229.44;;;12.44
24740;BMP280;45234;48.148;17.128;2022-10-28T02:58:53;101232.31;;;12.49
24740;BMP280;45234;48.148;17.128;2022-10-28T03:01:19;101227.66;;;12.45
24740;BMP280;45234;48.148;17.128;2022-10-28T03:03:47;101228.28;;;12.47
24740;BMP280;45234;48.148;17.128;2022-10-28T03:06:14;101232.06;;;12.44
24740;BMP280;45234;48.148;17.128;2022-10-28T03:08:40;101231.38;;;12.42
24740;BMP280;45234;48.148;17.128;2022-10-28T03:11:07;101238.22;;;12.43
24740;BMP280;45234;48.148;17.128;2022-10-28T03:13:33;101224.72;;;12.48
24740;BMP280;45234;48.148;17.128;2022-10-28T03:16:00;101220.75;;;12.52
24740;BMP280;45234;48.148;17.128;2022-10-28T03:18:27;101218.25;;;12.44
24740;BMP280;45234;48.148;17.128;2022-10-28T03:20:53;101222.97;;;12.40
24740;BMP280;45234;48.148;17.128;2022-10-28T03:23:24;101215.34;;;12.39
24740;BMP280;45234;48.148;17.128;2022-10-28T03:25:53;101214.38;;;12.40
24740;BMP280;45234;48.148;17.128;2022-10-28T03:28:19;101220.19;;;12.42
24740;BMP280;45234;48.148;17.128;2022-10-28T03:30:46;101213.69;;;12.46
24740;BMP280;45234;48.148;17.128;2022-10-28T03:33:12;101203.97;;;12.40
24740;BMP280;45234;48.148;17.128;2022-10-28T03:35:39;101195.25;;;12.32
24740;BMP280;45234;48.148;17.128;2022-10-28T03:38:08;101196.50;;;12.37
24740;BMP280;45234;48.148;17.128;2022-10-28T03:40:35;101202.97;;;12.41
24740;BMP280;45234;48.148;17.128;2022-10-28T03:43:01;101195.81;;;12.43
24740;BMP280;45234;48.148;17.128;2022-10-28T03:45:28;101190.63;;;12.43
24740;BMP280;45234;48.148;17.128;2022-10-28T03:47:59;101194.31;;;12.48
24740;BMP280;45234;48.148;17.128;2022-10-28T03:50:26;101194.84;;;12.44
24740;BMP280;45234;48.148;17.128;2022-10-28T03:52:52;101201.00;;;12.43
24740;BMP280;45234;48.148;17.128;2022-10-28T03:55:19;101200.03;;;12.44
24740;BMP280;45234;48.148;17.128;2022-10-28T03:57:45;101205.38;;;12.42
24740;BMP280;45234;48.148;17.128;2022-10-28T04:00:12;101208.34;;;12.39
24740;BMP280;45234;48.148;17.128;2022-10-28T04:02:39;101213.38;;;12.41
24740;BMP280;45234;48.148;17.128;2022-10-28T04:05:06;101211.41;;;12.43
24740;BMP280;45234;48.148;17.128;2022-10-28T04:07:33;101219.31;;;12.35
24740;BMP280;45234;48.148;17.128;2022-10-28T04:10:00;101222.69;;;12.35
24740;BMP280;45234;48.148;17.128;2022-10-28T04:12:28;101222.50;;;12.37
24740;BMP280;45234;48.148;17.128;2022-10-28T04:14:55;101210.16;;;12.39
24740;BMP280;45234;48.148;17.128;2022-10-28T04:17:21;101208.34;;;12.39
24740;BMP280;45234;48.148;17.128;2022-10-28T04:19:48;101202.16;;;12.40
24740;BMP280;45234;48.148;17.128;2022-10-28T04:22:14;101199.41;;;12.42
24740;BMP280;45234;48.148;17.128;2022-10-28T04:24:41;101202.78;;;12.42
24740;BMP280;45234;48.148;17.128;2022-10-28T04:27:08;101201.00;;;12.43
24740;BMP280;45234;48.148;17.128;2022-10-28T04:29:34;101205.88;;;12.46
24740;BMP280;45234;48.148;17.128;2022-10-28T04:32:01;101204.13;;;12.38
24740;BMP280;45234;48.148;17.128;2022-10-28T04:34:28;101205.28;;;12.36
24740;BMP280;45234;48.148;17.128;2022-10-28T04:36:54;101201.53;;;12.38
24740;BMP280;45234;48.148;17.128;2022-10-28T04:39:21;101196.06;;;12.33
24740;BMP280;45234;48.148;17.128;2022-10-28T04:41:47;101194.28;;;12.34
24740;BMP280;45234;48.148;17.128;2022-10-28T04:44:14;101201.59;;;12.30
24740;BMP280;45234;48.148;17.128;2022-10-28T04:46:41;101204.75;;;12.25
24740;BMP280;45234;48.148;17.128;2022-10-28T04:49:07;101208.75;;;12.28
24740;BMP280;45234;48.148;17.128;2022-10-28T04:51:34;101200.09;;;12.36
24740;BMP280;45234;48.148;17.128;2022-10-28T04:54:00;101200.28;;;12.34
24740;BMP280;45234;48.148;17.128;2022-10-28T04:56:27;101203.97;;;12.40
24740;BMP280;45234;48.148;17.128;2022-10-28T04:58:56;101209.09;;;12.48
24740;BMP280;45234;48.148;17.128;2022-10-28T05:01:22;101198.13;;;12.38
24740;BMP280;45234;48.148;17.128;2022-10-28T05:03:49;101203.31;;;12.38
24740;BMP280;45234;48.148;17.128;2022-10-28T05:06:16;101210.31;;;12.37
24740;BMP280;45234;48.148;17.128;2022-10-28T05:08:42;101201.72;;;12.37
24740;BMP280;45234;48.148;17.128;2022-10-28T05:11:09;101198.13;;;12.38
24740;BMP280;45234;48.148;17.128;2022-10-28T05:13:35;101196.97;;;12.40
24740;BMP280;45234;48.148;17.128;2022-10-28T05:16:02;101196.97;;;12.40
24740;BMP280;45234;48.148;17.128;2022-10-28T05:18:29;101194.09;;;12.35
24740;BMP280;45234;48.148;17.128;2022-10-28T05:20:55;101191.31;;;12.37
24740;BMP280;45234;48.148;17.128;2022-10-28T05:23:22;101185.50;;;12.35
24740;BMP280;45234;48.148;17.128;2022-10-28T05:27:33;101187.59;;;12.31
24740;BMP280;45234;48.148;17.128;2022-10-28T05:30:00;101181.28;;;12.34
24740;BMP280;45234;48.148;17.128;2022-10-28T05:32:28;101190.69;;;12.35
24740;BMP280;45234;48.148;17.128;2022-10-28T05:34:55;101191.31;;;12.37
24740;BMP280;45234;48.148;17.128;2022-10-28T05:37:21;101192.75;;;12.39
24740;BMP280;45234;48.148;17.128;2022-10-28T05:39:48;101178.59;;;12.42
24740;BMP280;45234;48.148;17.128;2022-10-28T05:42:14;101179.22;;;12.44
24740;BMP280;45234;48.148;17.128;2022-10-28T05:44:41;101174.56;;;12.39
24740;BMP280;45234;48.148;17.128;2022-10-28T05:47:07;101182.19;;;12.41
24740;BMP280;45234;48.148;17.128;2022-10-28T05:49:34;101178.59;;;12.42
24740;BMP280;45234;48.148;17.128;2022-10-28T05:52:01;101182.81;;;12.43
24740;BMP280;45234;48.148;17.128;2022-10-28T05:54:27;101186.41;;;12.42
24740;BMP280;45234;48.148;17.128;2022-10-28T05:56:54;101190.16;;;12.39
24740;BMP280;45234;48.148;17.128;2022-10-28T05:59:22;101189.34;;;12.39
24740;BMP280;45234;48.148;17.128;2022-10-28T06:01:49;101189.00;;;12.42
24740;BMP280;45234;48.148;17.128;2022-10-28T06:04:15;101183.44;;;12.45
24740;BMP280;45234;48.148;17.128;2022-10-28T06:06:42;101187.84;;;12.44
24740;BMP280;45234;48.148;17.128;2022-10-28T06:09:09;101191.88;;;12.47
24740;BMP280;45234;48.148;17.128;2022-10-28T06:11:36;101194.84;;;12.44
24740;BMP280;45234;48.148;17.128;2022-10-28T06:14:03;101185.06;;;12.46
24740;BMP280;45234;48.148;17.128;2022-10-28T06:16:30;101197.09;;;12.47
24740;BMP280;45234;48.148;17.128;2022-10-28T06:18:57;101204.34;;;12.51
24740;BMP280;45234;48.148;17.128;2022-10-28T06:21:23;101204.06;;;12.46
24740;BMP280;45234;48.148;17.128;2022-10-28T06:23:50;101205.88;;;12.46
24740;BMP280;45234;48.148;17.128;2022-10-28T06:26:17;101209.28;;;12.46
24740;BMP280;45234;48.148;17.128;2022-10-28T06:28:45;101211.06;;;12.46
24740;BMP280;45234;48.148;17.128;2022-10-28T06:31:12;101208.31;;;12.47
24740;BMP280;45234;48.148;17.128;2022-10-28T06:33:39;101213.13;;;12.50
24740;BMP280;45234;48.148;17.128;2022-10-28T06:36:05;101205.16;;;12.52
24740;BMP280;45234;48.148;17.128;2022-10-28T06:38:32;101211.63;;;12.56
24740;BMP280;45234;48.148;17.128;2022-10-28T06:40:59;101208.72;;;12.51
24740;BMP280;45234;48.148;17.128;2022-10-28T06:43:25;101197.53;;;12.50
24740;BMP280;45234;48.148;17.128;2022-10-28T06:45:52;101209.44;;;12.45
24740;BMP280;45234;48.148;17.128;2022-10-28T06:48:22;101222.72;;;12.50
24740;BMP280;45234;48.148;17.128;2022-10-28T06:50:49;101227.66;;;12.45
24740;BMP280;45234;48.148;17.128;2022-10-28T06:53:15;101237.13;;;12.38
24740;BMP280;45234;48.148;17.128;2022-10-28T06:55:42;101244.94;;;12.38
24740;BMP280;45234;48.148;17.128;2022-10-28T06:58:14;101240.09;;;12.35
24740;BMP280;45234;48.148;17.128;2022-10-28T07:00:40;101242.16;;;12.39
24740;BMP280;45234;48.148;17.128;2022-10-28T07:03:08;101249.44;;;12.44
24740;BMP280;45234;48.148;17.128;2022-10-28T07:05:34;101249.09;;;12.47
24740;BMP280;45234;48.148;17.128;2022-10-28T07:08:01;101253.94;;;12.50
24740;BMP280;45234;48.148;17.128;2022-10-28T07:10:28;101256.47;;;12.58
24740;BMP280;45234;48.148;17.128;2022-10-28T07:12:54;101250.03;;;12.54
24740;BMP280;45234;48.148;17.128;2022-10-28T07:15:21;101238.66;;;12.55
24740;BMP280;45234;48.148;17.128;2022-10-28T07:17:52;101246.88;;;12.58
24740;BMP280;45234;48.148;17.128;2022-10-28T07:20:19;101245.56;;;12.62
24740;BMP280;45234;48.148;17.128;2022-10-28T07:22:46;101251.38;;;12.64
24740;BMP280;45234;48.148;17.128;2022-10-28T07:25:13;101246.28;;;12.71
24740;BMP280;45234;48.148;17.128;2022-10-28T07:27:39;101254.72;;;12.73
24740;BMP280;45234;48.148;17.128;2022-10-28T07:30:06;101256.38;;;12.74
24740;BMP280;45234;48.148;17.128;2022-10-28T07:32:33;101252.06;;;12.81
24740;BMP280;45234;48.148;17.128;2022-10-28T07:34:59;101253.31;;;12.85
24740;BMP280;45234;48.148;17.128;2022-10-28T07:37:28;101252.41;;;12.78
24740;BMP280;45234;48.148;17.128;2022-10-28T07:39:54;101256.00;;;12.77
24740;BMP280;45234;48.148;17.128;2022-10-28T07:42:21;101256.00;;;12.77
24740;BMP280;45234;48.148;17.128;2022-10-28T07:44:47;101253.84;;;12.81
24740;BMP280;45234;48.148;17.128;2022-10-28T07:47:14;101256.28;;;12.82
24740;BMP280;45234;48.148;17.128;2022-10-28T07:49:42;101257.38;;;12.88
24740;BMP280;45234;48.148;17.128;2022-10-28T07:52:09;101258.53;;;12.85
24740;BMP280;45234;48.148;17.128;2022-10-28T07:54:36;101249.75;;;12.86
24740;BMP280;45234;48.148;17.128;2022-10-28T07:57:02;101242.44;;;12.82
24740;BMP280;45234;48.148;17.128;2022-10-28T07:59:29;101245.78;;;12.76
24740;BMP280;45234;48.148;17.128;2022-10-28T08:01:55;101247.09;;;12.72
24740;BMP280;45234;48.148;17.128;2022-10-28T08:04:22;101247.88;;;12.72
24740;BMP280;45234;48.148;17.128;2022-10-28T08:06:48;101247.88;;;12.72
24740;BMP280;45234;48.148;17.128;2022-10-28T08:09:15;101244.06;;;12.68
24740;BMP280;45234;48.148;17.128;2022-10-28T08:11:42;101241.78;;;12.65
24740;BMP280;45234;48.148;17.128;2022-10-28T08:14:09;101253.09;;;12.72
24740;BMP280;45234;48.148;17.128;2022-10-28T08:16:35;101248.00;;;12.79
24740;BMP280;45234;48.148;17.128;2022-10-28T08:19:02;101253.66;;;12.82
24740;BMP280;45234;48.148;17.128;2022-10-28T08:21:33;101250.53;;;12.87
24740;BMP280;45234;48.148;17.128;2022-10-28T08:23:59;101255.19;;;12.91
24740;BMP280;45234;48.148;17.128;2022-10-28T08:26:26;101252.41;;;12.93
24740;BMP280;45234;48.148;17.128;2022-10-28T08:28:52;101259.69;;;12.97
24740;BMP280;45234;48.148;17.128;2022-10-28T08:31:19;101260.44;;;13.06
24740;BMP280;45234;48.148;17.128;2022-10-28T08:33:46;101250.50;;;13.10
24740;BMP280;45234;48.148;17.128;2022-10-28T08:36:14;101242.28;;;13.13
24740;BMP280;45234;48.148;17.128;2022-10-28T08:38:41;101253.63;;;13.20
24740;BMP280;45234;48.148;17.128;2022-10-28T08:49:07;101257.53;;;13.45
24740;BMP280;45234;48.148;17.128;2022-10-28T08:51:37;101251.72;;;13.43
24740;BMP280;45234;48.148;17.128;2022-10-28T08:54:05;101248.09;;;13.44
24740;BMP280;45234;48.148;17.128;2022-10-28T08:56:40;101254.31;;;13.43
24740;BMP280;45234;48.148;17.128;2022-10-28T08:59:15;101258.53;;;13.44
24740;BMP280;45234;48.148;17.128;2022-10-28T09:01:48;101258.63;;;13.51
24740;BMP280;45234;48.148;17.128;2022-10-28T09:04:18;101259.97;;;13.61
24740;BMP280;45234;48.148;17.128;2022-10-28T09:06:47;101258.06;;;13.70
24740;BMP280;45234;48.148;17.128;2022-10-28T09:09:17;101257.13;;;13.78
24740;BMP280;45234;48.148;17.128;2022-10-28T09:24:49;101243.38;;;13.69
24740;BMP280;45234;48.148;17.128;2022-10-28T09:30:04;101241.97;;;13.66
24740;BMP280;45234;48.148;17.128;2022-10-28T09:35:10;101245.19;;;13.68
24740;BMP280;45234;48.148;17.128;2022-10-28T09:37:39;101251.19;;;13.69
24740;BMP280;45234;48.148;17.128;2022-10-28T09:42:40;101247.19;;;13.66
24740;BMP280;45234;48.148;17.128;2022-10-28T09:45:11;101259.97;;;13.61
24740;BMP280;45234;48.148;17.128;2022-10-28T09:47:52;101258.78;;;13.64
24740;BMP280;45234;48.148;17.128;2022-10-28T09:50:22;101260.81;;;13.68
24740;BMP280;45234;48.148;17.128;2022-10-28T09:55:34;101266.03;;;13.68
24740;BMP280;45234;48.148;17.128;2022-10-28T09:58:02;101261.28;;;13.72
24740;BMP280;45234;48.148;17.128;2022-10-28T10:00:28;101265.94;;;13.77
24740;BMP280;45234;48.148;17.128;2022-10-28T10:02:55;101269.78;;;13.81
24740;BMP280;45234;48.148;17.128;2022-10-28T10:05:25;101269.03;;;13.80
24740;BMP280;45234;48.148;17.128;2022-10-28T10:07:57;101273.41;;;13.80
24740;BMP280;45234;48.148;17.128;2022-10-28T10:12:51;101277.25;;;13.69
24740;BMP280;45234;48.148;17.128;2022-10-28T10:15:29;101275.66;;;13.68
24740;BMP280;45234;48.148;17.128;2022-10-28T10:17:58;101278.47;;;13.66
24740;BMP280;45234;48.148;17.128;2022-10-28T10:20:25;101268.84;;;13.67
24740;BMP280;45234;48.148;17.128;2022-10-28T10:22:52;101270.63;;;13.66
24740;BMP280;45234;48.148;17.128;2022-10-28T10:27:56;101266.03;;;13.68
24740;BMP280;45234;48.148;17.128;2022-10-28T10:30:25;101257.31;;;13.76
24740;BMP280;45234;48.148;17.128;2022-10-28T10:32:54;101265.75;;;13.78
24740;BMP280;45234;48.148;17.128;2022-10-28T10:35:25;101274.31;;;13.72
24740;BMP280;45234;48.148;17.128;2022-10-28T10:37:54;101267.78;;;13.61
24740;BMP280;45234;48.148;17.128;2022-10-28T10:42:49;101268.41;;;13.63
24740;BMP280;45234;48.148;17.128;2022-10-28T10:45:36;101269.91;;;13.73
24740;BMP280;45234;48.148;17.128;2022-10-28T10:48:12;101262.16;;;13.79
24740;BMP280;45234;48.148;17.128;2022-10-28T10:50:40;101254.78;;;13.83
24740;BMP280;45234;48.148;17.128;2022-10-28T10:53:15;101265.22;;;13.83
24740;BMP280;45234;48.148;17.128;2022-10-28T10:55:42;101261.97;;;13.81
24740;BMP280;45234;48.148;17.128;2022-10-28T10:58:17;101258.63;;;13.87
24740;BMP280;45234;48.148;17.128;2022-10-28T11:00:52;101260.78;;;13.98
24740;BMP280;45234;48.148;17.128;2022-10-28T11:03:45;101256.63;;;13.89
24740;BMP280;45234;48.148;17.128;2022-10-28T11:06:07;101256.31;;;13.92
24740;BMP280;45234;48.148;17.128;2022-10-28T11:08:53;101251.16;;;13.98
24740;BMP280;45234;48.148;17.128;2022-10-28T11:11:31;101251.50;;;13.95
24740;BMP280;45234;48.148;17.128;2022-10-28T11:14:42;101239.06;;;13.91
24740;BMP280;45234;48.148;17.128;2022-10-28T11:16:54;101233.50;;;13.79
24740;BMP280;45234;48.148;17.128;2022-10-28T11:19:32;101226.75;;;13.85
24740;BMP280;45234;48.148;17.128;2022-10-28T11:22:14;101219.50;;;13.80
24740;BMP280;45234;48.148;17.128;2022-10-28T11:24:47;101215.25;;;13.79
24740;BMP280;45234;48.148;17.128;2022-10-28T11:29:45;101216.50;;;13.83
24740;BMP280;45234;48.148;17.128;2022-10-28T11:35:03;101218.13;;;13.84
24740;BMP280;45234;48.148;17.128;2022-10-28T11:40:18;101222.53;;;13.84
24740;BMP280;45234;48.148;17.128;2022-10-28T11:48:10;101224.75;;;14.08
24740;BMP280;45234;48.148;17.128;2022-10-28T11:50:42;101211.97;;;14.13
24740;BMP280;45234;48.148;17.128;2022-10-28T11:55:51;101214.44;;;14.21
24740;BMP280;45234;48.148;17.128;2022-10-28T12:06:22;101203.72;;;14.10
24740;BMP280;45234;48.148;17.128;2022-10-28T12:11:25;101203.91;;;14.08
24740;BMP280;45234;48.148;17.128;2022-10-28T12:14:02;101189.81;;;14.02
24740;BMP280;45234;48.148;17.128;2022-10-28T12:16:38;101194.97;;;13.96
24740;BMP280;45234;48.148;17.128;2022-10-28T12:21:40;101191.66;;;13.87
24740;BMP280;45234;48.148;17.128;2022-10-28T12:24:17;101185.63;;;13.87
24740;BMP280;45234;48.148;17.128;2022-10-28T12:26:48;101194.88;;;13.89
24740;BMP280;45234;48.148;17.128;2022-10-28T12:32:06;101193.66;;;13.85
24740;BMP280;45234;48.148;17.128;2022-10-28T12:34:37;101196.47;;;13.84
24740;BMP280;45234;48.148;17.128;2022-10-28T12:37:08;101186.03;;;13.84
24740;BMP280;45234;48.148;17.128;2022-10-28T12:39:40;101193.91;;;13.90
24740;BMP280;45234;48.148;17.128;2022-10-28T12:42:24;101195.38;;;13.93
24740;BMP280;45234;48.148;17.128;2022-10-28T12:44:55;101202.22;;;14.00
24740;BMP280;45234;48.148;17.128;2022-10-28T12:55:00;101184.53;;;13.96
24740;BMP280;45234;48.148;17.128;2022-10-28T12:57:28;101182.13;;;13.94
24740;BMP280;45234;48.148;17.128;2022-10-28T13:00:42;101172.72;;;14.00
24740;BMP280;45234;48.148;17.128;2022-10-28T13:02:48;101176.34;;;13.99
24740;BMP280;45234;48.148;17.128;2022-10-28T13:05:26;101175.97;;;14.02
24740;BMP280;45234;48.148;17.128;2022-10-28T13:10:36;101169.31;;;13.99
24740;BMP280;45234;48.148;17.128;2022-10-28T13:13:13;101163.75;;;14.02
24740;BMP280;45234;48.148;17.128;2022-10-28T13:18:34;101165.66;;;13.94
24740;BMP280;45234;48.148;17.128;2022-10-28T13:26:16;101168.28;;;13.94
24740;BMP280;45234;48.148;17.128;2022-10-28T13:28:47;101170.06;;;13.93
24740;BMP280;45234;48.148;17.128;2022-10-28T13:31:14;101175.72;;;13.97
24740;BMP280;45234;48.148;17.128;2022-10-28T13:33:50;101166.88;;;13.91
24740;BMP280;45234;48.148;17.128;2022-10-28T13:36:19;101169.28;;;13.93
24740;BMP280;45234;48.148;17.128;2022-10-28T13:38:54;101171.50;;;13.96
24740;BMP280;45234;48.148;17.128;2022-10-28T13:41:39;101172.31;;;13.96
24740;BMP280;45234;48.148;17.128;2022-10-28T13:44:20;101166.91;;;13.98
24740;BMP280;45234;48.148;17.128;2022-10-28T13:49:34;101167.50;;;14.00
24740;BMP280;45234;48.148;17.128;2022-10-28T13:57:12;101168.41;;;13.86
24740;BMP280;45234;48.148;17.128;2022-10-28T13:59:48;101166.41;;;13.88
24740;BMP280;45234;48.148;17.128;2022-10-28T14:02:19;101163.94;;;13.80
24740;BMP280;45234;48.148;17.128;2022-10-28T14:05:02;101166.72;;;13.78
24740;BMP280;45234;48.148;17.128;2022-10-28T14:07:30;101172.75;;;13.79
24740;BMP280;45234;48.148;17.128;2022-10-28T14:09:59;101172.38;;;13.82
24740;BMP280;45234;48.148;17.128;2022-10-28T14:12:45;101167.16;;;13.82
24740;BMP280;45234;48.148;17.128;2022-10-28T14:17:40;101170.31;;;13.77
24740;BMP280;45234;48.148;17.128;2022-10-28T14:22:46;101171.88;;;13.71
24740;BMP280;45234;48.148;17.128;2022-10-28T14:27:58;101164.31;;;13.77
24740;BMP280;45234;48.148;17.128;2022-10-28T14:30:25;101170.31;;;13.77
24740;BMP280;45234;48.148;17.128;2022-10-28T14:32:55;101169.97;;;13.80
24740;BMP280;45234;48.148;17.128;2022-10-28T14:35:36;101166.16;;;13.83
24740;BMP280;45234;48.148;17.128;2022-10-28T14:43:16;101172.59;;;13.87
24740;BMP280;45234;48.148;17.128;2022-10-28T14:50:54;101165.66;;;13.94
24740;BMP280;45234;48.148;17.128;2022-10-28T14:53:24;101163.69;;;13.96
24740;BMP280;45234;48.148;17.128;2022-10-28T14:55:57;101164.31;;;13.98
24740;BMP280;45234;48.148;17.128;2022-10-28T14:58:27;101163.31;;;13.99
24740;BMP280;45234;48.148;17.128;2022-10-28T15:03:27;101163.06;;;13.94
24740;BMP280;45234;48.148;17.128;2022-10-28T15:05:54;101160.00;;;13.90
24740;BMP280;45234;48.148;17.128;2022-10-28T15:08:22;101155.63;;;13.91
24740;BMP280;45234;48.148;17.128;2022-10-28T15:10:50;101162.06;;;13.95
24740;BMP280;45234;48.148;17.128;2022-10-28T15:13:17;101155.44;;;13.92
24740;BMP280;45234;48.148;17.128;2022-10-28T15:15:52;101151.75;;;13.87
24740;BMP280;45234;48.148;17.128;2022-10-28T15:18:20;101150.75;;;13.88
24740;BMP280;45234;48.148;17.128;2022-10-28T15:20:47;101153.94;;;13.83
24740;BMP280;45234;48.148;17.128;2022-10-28T15:23:16;101147.94;;;13.83
24740;BMP280;45234;48.148;17.128;2022-10-28T15:25:43;101143.34;;;13.85
24740;BMP280;45234;48.148;17.128;2022-10-28T15:28:10;101141.16;;;13.88
24740;BMP280;45234;48.148;17.128;2022-10-28T15:30:38;101138.72;;;13.87
24740;BMP280;45234;48.148;17.128;2022-10-28T15:41:28;101140.97;;;13.90
24740;BMP280;45234;48.148;17.128;2022-10-28T15:44:00;101141.63;;;13.92
24740;BMP280;45234;48.148;17.128;2022-10-28T15:46:27;101142.75;;;13.89
24740;BMP280;45234;48.148;17.128;2022-10-28T15:48:58;101141.31;;;13.87
24740;BMP280;45234;48.148;17.128;2022-10-28T15:51:25;101139.50;;;13.81
24740;BMP280;45234;48.148;17.128;2022-10-28T15:53:52;101147.50;;;13.79
24740;BMP280;45234;48.148;17.128;2022-10-28T15:56:22;101138.25;;;13.77
24740;BMP280;45234;48.148;17.128;2022-10-28T15:59:32;101137.63;;;13.75
24740;BMP280;45234;48.148;17.128;2022-10-28T16:01:39;101139.63;;;13.73
24740;BMP280;45234;48.148;17.128;2022-10-28T16:06:48;101142.59;;;13.69
24740;BMP280;45234;48.148;17.128;2022-10-28T16:09:24;101132.31;;;13.68
24740;BMP280;45234;48.148;17.128;2022-10-28T16:11:54;101135.59;;;13.70
24740;BMP280;45234;48.148;17.128;2022-10-28T16:14:38;101134.19;;;13.74
24740;BMP280;45234;48.148;17.128;2022-10-28T16:19:43;101137.06;;;13.79
24740;BMP280;45234;48.148;17.128;2022-10-28T16:22:10;101135.00;;;13.75
24740;BMP280;45234;48.148;17.128;2022-10-28T16:24:38;101145.66;;;13.73
24740;BMP280;45234;48.148;17.128;2022-10-28T16:27:19;101140.84;;;13.77
24740;BMP280;45234;48.148;17.128;2022-10-28T16:29:46;101148.28;;;13.80
24740;BMP280;45234;48.148;17.128;2022-10-28T16:32:14;101150.28;;;13.78
24740;BMP280;45234;48.148;17.128;2022-10-28T16:34:41;101149.28;;;13.79
24740;BMP280;45234;48.148;17.128;2022-10-28T16:37:17;101148.28;;;13.80
24740;BMP280;45234;48.148;17.128;2022-10-28T16:39:45;101143.53;;;13.83
24740;BMP280;45234;48.148;17.128;2022-10-28T16:42:12;101146.25;;;13.75
24740;BMP280;45234;48.148;17.128;2022-10-28T16:44:39;101143.41;;;13.70